createdAt,value
2018-08-28T00:01:06.550Z,82.91
2018-08-28T00:03:36.663Z,82.42
2018-08-28T00:06:08.631Z,82.73
2018-08-28T00:08:38.573Z,82.55
2018-08-28T00:11:08.784Z,82.92
2018-08-28T00:13:40.320Z,83.10
2018-08-28T00:16:10.762Z,83.18
2018-08-28T00:18:41.426Z,83.76
2018-08-28T00:21:11.911Z,83.89
2018-08-28T00:23:43.090Z,83.92
2018-08-28T00:26:13.057Z,83.62
2018-08-28T00:28:43.004Z,83.58
2018-08-28T00:34:00.079Z,84.29
2018-08-28T00:36:30.977Z,85.05
2018-08-28T00:39:01.080Z,84.98
2018-08-28T00:41:32.551Z,85.53
2018-08-28T00:44:03.379Z,85.49
2018-08-28T00:46:33.369Z,85.66
2018-08-28T00:49:03.564Z,86.35
2018-08-28T00:51:33.587Z,86.02
2018-08-28T00:54:04.370Z,86.54
2018-08-28T00:56:38.816Z,86.68
2018-08-28T00:59:08.880Z,86.07
2018-08-28T01:01:38.775Z,86.10
2018-08-28T01:04:14.928Z,86.28
2018-08-28T01:06:44.876Z,87.11
2018-08-28T01:09:32.232Z,88.18
2018-08-28T01:12:11.232Z,88.37
2018-08-28T01:17:37.090Z,88.83
2018-08-28T01:20:12.839Z,88.99
2018-08-28T01:23:04.048Z,89.82
2018-08-28T01:25:43.071Z,89.87
2018-08-28T01:28:12.941Z,90.48
2018-08-28T01:30:42.920Z,91.14
2018-08-28T01:33:12.809Z,90.65
2018-08-28T01:35:47.045Z,90.79
2018-08-28T01:38:17.146Z,91.66
2018-08-28T01:40:47.059Z,91.38
2018-08-28T01:45:56.925Z,91.87
2018-08-28T01:48:26.870Z,91.77
2018-08-28T01:50:56.796Z,92.09
2018-08-28T01:53:29.247Z,92.23
2018-08-28T01:55:59.217Z,92.39
2018-08-28T02:01:23.788Z,93.54
2018-08-28T02:03:56.063Z,92.74
2018-08-28T02:06:26.047Z,92.76
2018-08-28T02:09:48.848Z,92.89
2018-08-28T02:12:19.052Z,93.35
2018-08-28T02:14:48.941Z,93.85
2018-08-28T02:17:19.884Z,93.72
2018-08-28T02:19:49.979Z,94.51
2018-08-28T02:22:21.226Z,94.64
2018-08-28T02:25:01.131Z,93.89
2018-08-28T02:27:31.707Z,94.20
2018-08-28T02:30:21.792Z,94.00
2018-08-28T02:32:52.335Z,93.87
2018-08-28T02:35:22.250Z,94.24
2018-08-28T02:37:52.360Z,93.67
2018-08-28T02:40:24.431Z,93.92
2018-08-28T02:42:54.436Z,94.55
2018-08-28T02:45:24.385Z,94.45
2018-08-28T02:47:54.349Z,94.01
2018-08-28T02:50:24.364Z,94.03
2018-08-28T02:52:54.431Z,94.42
2018-08-28T02:55:29.794Z,93.97
2018-08-28T02:57:59.793Z,94.13
2018-08-28T03:00:29.721Z,94.13
2018-08-28T03:02:59.718Z,94.28
2018-08-28T03:08:27.474Z,93.70
2018-08-28T03:10:57.718Z,93.56
2018-08-28T03:13:27.880Z,93.55
2018-08-28T03:15:58.023Z,94.36
2018-08-28T03:18:30.520Z,94.58
2018-08-28T03:21:00.470Z,94.27
2018-08-28T03:23:30.359Z,94.90
2018-08-28T03:26:00.610Z,94.60
2018-08-28T03:28:31.809Z,95.04
2018-08-28T03:31:01.841Z,95.04
2018-08-28T03:33:32.177Z,95.48
2018-08-28T03:36:02.046Z,94.88
2018-08-28T03:38:32.815Z,94.88
2018-08-28T03:41:11.872Z,94.31
2018-08-28T03:43:41.917Z,94.65
2018-08-28T03:46:12.445Z,94.42
2018-08-28T03:48:42.471Z,94.19
2018-08-28T03:51:31.364Z,94.63
2018-08-28T03:54:01.275Z,94.56
2018-08-28T03:56:31.131Z,94.51
2018-08-28T03:59:01.844Z,94.75
2018-08-28T04:01:31.773Z,95.01
2018-08-28T04:04:11.767Z,95.12
2018-08-28T04:06:42.533Z,94.90
2018-08-28T04:09:12.766Z,94.65
2018-08-28T04:11:42.845Z,94.41
2018-08-28T04:14:18.368Z,94.04
2018-08-28T04:16:48.348Z,94.43
2018-08-28T04:19:18.367Z,94.49
2018-08-28T04:21:48.263Z,93.90
2018-08-28T04:24:18.374Z,94.04
2018-08-28T04:26:48.702Z,94.37
2018-08-28T04:29:18.528Z,94.44
2018-08-28T04:31:48.487Z,94.50
2018-08-28T04:34:18.446Z,94.63
2018-08-28T04:36:48.362Z,95.04
2018-08-28T04:39:19.535Z,95.51
2018-08-28T04:42:08.863Z,95.54
2018-08-28T04:44:57.310Z,95.31
2018-08-28T04:47:27.291Z,95.96
2018-08-28T04:49:57.211Z,95.57
2018-08-28T04:52:27.224Z,95.26
2018-08-28T04:54:57.978Z,95.06
2018-08-28T04:57:27.723Z,95.24
2018-08-28T04:59:58.829Z,95.03
2018-08-28T05:02:37.877Z,94.92
2018-08-28T05:05:10.873Z,94.01
2018-08-28T05:07:44.496Z,94.17
2018-08-28T05:10:16.064Z,93.92
2018-08-28T05:12:47.310Z,94.13
2018-08-28T05:15:44.256Z,94.21
2018-08-28T05:18:18.167Z,95.10
2018-08-28T05:23:45.632Z,95.43
2018-08-28T05:39:35.650Z,93.36
2018-08-28T05:42:15.976Z,93.27
2018-08-28T05:44:47.450Z,93.44
2018-08-28T05:50:34.349Z,92.98
2018-08-28T05:53:21.579Z,93.04
2018-08-28T06:28:53.913Z,90.20
2018-08-28T06:32:54.173Z,89.97
2018-08-28T07:00:42.347Z,84.00
2018-08-28T07:03:31.307Z,83.01
2018-08-28T07:12:03.490Z,79.59
2018-08-28T07:14:44.620Z,79.31
2018-08-28T07:17:16.720Z,77.55
2018-08-28T07:47:31.424Z,67.28
2018-08-28T07:50:13.346Z,65.23
2018-08-28T07:52:45.672Z,65.53
2018-08-28T08:07:37.746Z,53.80
2018-08-28T08:10:21.709Z,52.17
2018-08-28T08:17:30.992Z,47.10
2018-08-28T08:20:03.469Z,47.23
2018-08-28T08:22:42.881Z,47.20
2018-08-28T08:25:14.338Z,45.09
2018-08-28T08:27:54.742Z,46.24
2018-08-28T08:35:08.612Z,43.44
2018-08-28T08:44:45.521Z,37.84
2018-08-28T08:47:25.240Z,37.30
2018-08-28T08:53:13.148Z,37.40
2018-08-28T08:55:45.095Z,36.59
2018-08-28T09:11:10.707Z,37.27
2018-08-28T09:19:30.065Z,33.90
2018-08-28T09:34:30.867Z,33.21
2018-08-28T09:37:07.276Z,36.95
2018-08-28T09:39:38.898Z,37.77
2018-08-28T09:42:21.392Z,36.87
2018-08-28T09:44:54.140Z,36.09
2018-08-28T09:47:27.005Z,34.93
2018-08-28T09:50:03.310Z,34.73
2018-08-28T09:52:36.576Z,34.24
2018-08-28T09:55:07.966Z,34.38
2018-08-28T09:57:48.735Z,35.05
2018-08-28T10:00:26.723Z,33.28
2018-08-28T10:03:04.303Z,34.10
2018-08-28T10:05:38.479Z,35.51
2018-08-28T10:08:12.770Z,36.85
2018-08-28T10:10:45.273Z,38.16
2018-08-28T10:13:16.524Z,40.43
2018-08-28T10:15:59.624Z,42.10
2018-08-28T10:18:30.773Z,41.22
2018-08-28T10:21:02.967Z,41.04
2018-08-28T10:23:41.277Z,41.85
2018-08-28T10:26:14.130Z,41.33
2018-08-28T10:28:47.533Z,42.45
2018-08-28T10:31:19.044Z,40.13
2018-08-28T10:33:53.290Z,41.34
2018-08-28T10:39:29.825Z,41.23
2018-08-28T10:42:11.356Z,41.25
2018-08-28T10:45:01.077Z,42.14
2018-08-28T10:51:02.930Z,41.67
2018-08-28T10:53:37.348Z,42.88
2018-08-28T10:56:22.729Z,41.85
2018-08-28T11:01:39.550Z,43.02
2018-08-28T11:24:11.194Z,41.93
2018-08-28T11:26:42.742Z,41.25
2018-08-28T11:29:13.254Z,42.77
2018-08-28T11:31:56.164Z,41.32
2018-08-28T11:34:30.398Z,41.77
2018-08-28T11:47:58.163Z,43.01
2018-08-28T11:50:31.447Z,40.45
2018-08-28T11:53:08.112Z,40.98
2018-08-28T11:56:01.948Z,40.10
2018-08-28T12:01:46.778Z,39.76
2018-08-28T12:04:34.507Z,40.32
2018-08-28T12:07:06.529Z,40.44
2018-08-28T12:09:39.296Z,40.00
2018-08-28T12:12:17.126Z,40.56
2018-08-28T12:14:56.379Z,41.40
2018-08-28T12:17:37.139Z,42.26
2018-08-28T12:49:04.319Z,38.94
2018-08-28T12:51:34.642Z,38.69
2018-08-28T12:54:18.753Z,39.23
2018-08-28T12:56:49.297Z,37.18
2018-08-28T12:59:21.415Z,37.41
2018-08-28T13:01:52.857Z,36.12
2018-08-28T13:04:30.469Z,37.44
2018-08-28T13:07:28.119Z,37.46
2018-08-28T13:10:09.149Z,36.71
2018-08-28T13:13:46.644Z,37.45
2018-08-28T13:19:20.271Z,37.16
2018-08-28T13:21:50.835Z,36.95
2018-08-28T13:24:22.540Z,36.51
2018-08-28T13:27:05.113Z,36.76
2018-08-28T13:29:45.261Z,36.58
2018-08-28T13:32:17.306Z,36.92
2018-08-28T13:34:54.557Z,36.49
2018-08-28T13:37:47.284Z,36.15
2018-08-28T13:40:18.405Z,32.60
2018-08-28T13:42:48.576Z,30.94
2018-08-28T13:59:46.549Z,22.84
2018-08-28T14:02:18.096Z,21.76
2018-08-28T14:04:48.472Z,22.62
2018-08-28T14:07:20.907Z,22.60
2018-08-28T14:09:51.677Z,23.59
2018-08-28T14:12:21.874Z,23.67
2018-08-28T14:18:26.395Z,22.25
2018-08-28T14:20:59.281Z,20.83
2018-08-28T14:26:54.268Z,20.63
2018-08-28T14:29:28.023Z,19.88
2018-08-28T14:32:00.097Z,20.07
2018-08-28T14:34:29.775Z,20.92
2018-08-28T14:37:03.032Z,20.97
2018-08-28T14:39:33.561Z,20.78
2018-08-28T14:42:03.381Z,20.90
2018-08-28T14:44:34.226Z,21.68
2018-08-28T14:47:06.502Z,21.27
2018-08-28T14:49:38.784Z,21.18
2018-08-28T14:52:09.471Z,22.63
2018-08-28T14:54:40.448Z,22.39
2018-08-28T14:57:11.090Z,24.66
2018-08-28T14:59:58.725Z,22.74
2018-08-28T15:02:29.246Z,21.62
2018-08-28T15:05:00.204Z,21.25
2018-08-28T15:07:31.521Z,22.70
2018-08-28T15:10:01.831Z,24.02
2018-08-28T15:12:33.103Z,22.37
2018-08-28T15:17:57.563Z,22.75
2018-08-28T15:20:30.633Z,22.67
2018-08-28T15:23:02.966Z,24.80
2018-08-28T15:25:35.575Z,22.50
2018-08-28T15:28:11.169Z,24.15
2018-08-28T15:30:43.268Z,23.46
2018-08-28T15:36:03.236Z,21.10
2018-08-28T15:38:35.547Z,21.45
2018-08-28T15:41:09.031Z,21.61
2018-08-28T15:43:42.918Z,22.20
2018-08-28T15:46:31.129Z,22.71
2018-08-28T15:52:10.201Z,23.34
2018-08-28T15:54:42.868Z,23.16
2018-08-28T15:57:21.610Z,23.26
2018-08-28T16:02:47.967Z,23.28
2018-08-28T16:05:25.964Z,24.27
2018-08-28T16:07:56.953Z,24.06
2018-08-28T16:10:27.603Z,24.77
2018-08-28T16:13:02.304Z,26.86
2018-08-28T16:15:40.392Z,25.30
2018-08-28T16:20:58.461Z,26.73
2018-08-28T16:23:43.677Z,26.95
2018-08-28T16:26:28.593Z,28.65
2018-08-28T16:39:41.166Z,35.96
2018-08-28T16:45:26.757Z,36.41
2018-08-28T17:19:06.618Z,42.37
2018-08-28T17:21:48.446Z,42.01
2018-08-28T17:27:09.299Z,41.89
2018-08-28T17:29:57.421Z,42.14
2018-08-28T17:32:29.672Z,42.34
2018-08-28T17:35:02.834Z,43.21
2018-08-28T17:37:42.702Z,43.79
2018-08-28T17:40:14.152Z,45.24
2018-08-28T17:42:46.991Z,43.99
2018-08-28T17:45:29.617Z,45.26
2018-08-28T17:48:19.627Z,45.43
2018-08-28T17:51:12.554Z,45.57
2018-08-28T17:53:51.844Z,47.93
2018-08-28T17:56:28.295Z,48.05
2018-08-28T17:59:02.436Z,49.21
2018-08-28T18:01:34.319Z,48.91
2018-08-28T18:04:08.697Z,49.89
2018-08-28T18:09:36.790Z,50.85
2018-08-28T18:12:12.447Z,51.55
2018-08-28T18:14:49.327Z,52.31
2018-08-28T18:17:21.578Z,54.05
2018-08-28T18:19:55.672Z,54.75
2018-08-28T18:22:29.371Z,55.54
2018-08-28T18:25:03.392Z,56.61
2018-08-28T18:27:35.166Z,56.24
2018-08-28T18:30:05.899Z,56.50
2018-08-28T18:32:40.861Z,56.03
2018-08-28T18:35:14.079Z,56.79
2018-08-28T18:37:46.833Z,56.36
2018-08-28T18:40:20.935Z,56.45
2018-08-28T18:42:58.741Z,57.11
2018-08-28T18:45:45.865Z,56.77
2018-08-28T18:48:35.802Z,57.78
2018-08-28T18:51:20.124Z,58.15
2018-08-28T18:53:57.263Z,59.12
2018-08-28T18:59:35.771Z,60.12
2018-08-28T19:02:06.714Z,60.64
2018-08-28T19:04:37.807Z,60.85
2018-08-28T19:07:09.317Z,60.76
2018-08-28T19:09:42.453Z,60.92
2018-08-28T19:12:14.158Z,61.65
2018-08-28T19:14:48.795Z,60.93
2018-08-28T19:20:21.966Z,63.06
2018-08-28T19:23:01.317Z,62.48
2018-08-28T19:25:32.307Z,63.25
2018-08-28T19:28:07.413Z,63.52
2018-08-28T19:30:46.450Z,63.57
2018-08-28T19:33:19.190Z,63.45
2018-08-28T19:35:52.252Z,63.92
2018-08-28T19:38:26.139Z,63.76
2018-08-28T19:40:58.738Z,64.35
2018-08-28T19:43:32.143Z,64.10
2018-08-28T19:46:04.422Z,64.96
2018-08-28T19:48:38.983Z,64.58
2018-08-28T19:51:13.130Z,65.00
2018-08-28T19:53:48.486Z,65.21
2018-08-28T19:56:32.424Z,65.24
2018-08-28T19:59:08.051Z,65.53
2018-08-28T20:01:39.633Z,66.28
2018-08-28T20:04:14.872Z,66.56
2018-08-28T20:06:52.723Z,67.08
2018-08-28T20:12:48.676Z,68.03
2018-08-28T20:15:21.944Z,67.12
2018-08-28T20:17:53.174Z,67.14
2018-08-28T20:20:26.105Z,66.50
2018-08-28T20:23:13.578Z,66.72
2018-08-28T20:31:16.515Z,68.27
2018-08-28T20:33:56.065Z,68.35
2018-08-28T20:36:34.005Z,69.01
2018-08-28T20:39:06.104Z,69.56
2018-08-28T20:41:45.170Z,69.41
2018-08-28T20:44:23.341Z,69.52
2018-08-28T20:49:39.052Z,70.18
2018-08-28T20:52:11.417Z,70.10
2018-08-28T20:54:43.968Z,70.23
2018-08-28T20:57:17.284Z,70.38
2018-08-28T20:59:50.826Z,71.10
2018-08-28T21:02:22.056Z,70.97
2018-08-28T21:04:52.692Z,70.78
2018-08-28T21:07:23.180Z,70.97
2018-08-28T21:09:53.182Z,71.19
2018-08-28T21:12:23.908Z,71.28
2018-08-28T21:14:54.812Z,71.17
2018-08-28T21:17:26.378Z,71.41
2018-08-28T21:19:56.732Z,71.92
2018-08-28T21:22:30.772Z,71.87
2018-08-28T21:25:01.012Z,72.58
2018-08-28T21:27:32.883Z,73.16
2018-08-28T21:30:05.596Z,73.22
2018-08-28T21:35:40.761Z,73.46
2018-08-28T21:38:10.773Z,73.62
2018-08-28T21:40:44.476Z,73.24
2018-08-28T21:43:21.461Z,72.97
2018-08-28T21:49:48.485Z,73.56
2018-08-28T21:52:18.489Z,73.35
2018-08-28T21:54:49.914Z,73.60
2018-08-28T21:57:23.060Z,73.72
2018-08-28T21:59:54.033Z,73.94
2018-08-28T22:02:25.068Z,74.92
2018-08-28T22:04:55.959Z,74.71
2018-08-28T22:07:32.218Z,75.09
2018-08-28T22:10:06.987Z,75.38
2018-08-28T22:12:37.398Z,74.93
2018-08-28T22:15:13.291Z,75.71
2018-08-28T22:17:44.112Z,75.36
2018-08-28T22:20:23.870Z,75.29
2018-08-28T22:22:55.531Z,75.72
2018-08-28T22:28:46.291Z,75.64
2018-08-28T22:31:19.796Z,75.26
2018-08-28T22:36:39.075Z,76.79
2018-08-28T22:39:10.130Z,76.67
2018-08-28T22:49:43.799Z,77.08
2018-08-28T22:52:19.635Z,77.65
2018-08-28T22:57:34.188Z,77.66
2018-08-28T23:00:09.943Z,76.91
2018-08-28T23:02:56.057Z,77.34
2018-08-28T23:05:31.428Z,77.45
2018-08-28T23:08:05.179Z,77.78
2018-08-28T23:10:37.682Z,77.81
2018-08-28T23:13:08.313Z,77.67
2018-08-28T23:15:39.961Z,77.78
2018-08-28T23:18:10.742Z,77.85
2018-08-28T23:20:52.170Z,78.15
2018-08-28T23:23:23.774Z,77.98
2018-08-28T23:25:54.626Z,78.99
2018-08-28T23:28:24.953Z,79.23
2018-08-28T23:30:55.914Z,79.09
2018-08-28T23:33:26.460Z,78.40
2018-08-28T23:35:59.489Z,78.92
2018-08-28T23:38:31.083Z,78.48
2018-08-28T23:47:44.412Z,79.30
2018-08-28T23:50:21.269Z,79.64
2018-08-28T23:53:04.804Z,79.54
2018-08-28T23:55:45.012Z,79.88
2018-08-28T23:58:35.264Z,80.02
